NCAR-RAP Real-Time Weather Data

Output produced by METARs form (10 April 2020  07:17 UTC)
found at http://weather.rap.ucar.edu/surface/
 
KJFK 100651Z 26022G28KT 10SM FEW029 BKN140 OVC250 06/01 A2935 RMK AO2 PK WND 25029/0626 SLP937 T00560011